sensor_id;sensor_type;location;lat;lon;timestamp;temperature;humidity
6106;DHT22;3083;51.508;7.966;2022-08-11T00:01:44;17.30;99.90
6106;DHT22;3083;51.508;7.966;2022-08-11T00:04:12;17.30;99.90
6106;DHT22;3083;51.508;7.966;2022-08-11T00:06:43;17.20;99.90
6106;DHT22;3083;51.508;7.966;2022-08-11T00:09:14;17.20;99.90
6106;DHT22;3083;51.508;7.966;2022-08-11T00:11:45;17.20;99.90
6106;DHT22;3083;51.508;7.966;2022-08-11T00:14:15;17.10;99.90
6106;DHT22;3083;51.508;7.966;2022-08-11T00:16:51;17.10;99.90
6106;DHT22;3083;51.508;7.966;2022-08-11T00:19:21;17.00;99.90
6106;DHT22;3083;51.508;7.966;2022-08-11T00:21:52;17.00;99.90
6106;DHT22;3083;51.508;7.966;2022-08-11T00:24:20;17.00;99.90
6106;DHT22;3083;51.508;7.966;2022-08-11T00:26:48;16.90;99.90
6106;DHT22;3083;51.508;7.966;2022-08-11T00:29:17;16.80;99.90
6106;DHT22;3083;51.508;7.966;2022-08-11T00:31:47;16.70;99.90
6106;DHT22;3083;51.508;7.966;2022-08-11T00:34:18;16.60;99.90
6106;DHT22;3083;51.508;7.966;2022-08-11T00:36:51;16.50;99.90
6106;DHT22;3083;51.508;7.966;2022-08-11T00:39:21;16.40;99.90
6106;DHT22;3083;51.508;7.966;2022-08-11T00:42:09;16.40;99.90
6106;DHT22;3083;51.508;7.966;2022-08-11T00:44:48;16.40;99.90
6106;DHT22;3083;51.508;7.966;2022-08-11T00:47:26;16.40;99.90
6106;DHT22;3083;51.508;7.966;2022-08-11T00:50:10;16.30;99.90
6106;DHT22;3083;51.508;7.966;2022-08-11T00:52:56;16.30;99.90
6106;DHT22;3083;51.508;7.966;2022-08-11T00:55:47;16.20;99.90
6106;DHT22;3083;51.508;7.966;2022-08-11T01:01:45;16.30;99.90
6106;DHT22;3083;51.508;7.966;2022-08-11T01:04:48;16.30;99.90
6106;DHT22;3083;51.508;7.966;2022-08-11T01:08:03;16.40;99.90
6106;DHT22;3083;51.508;7.966;2022-08-11T01:10:47;16.40;99.90
6106;DHT22;3083;51.508;7.966;2022-08-11T01:13:40;16.40;99.90
6106;DHT22;3083;51.508;7.966;2022-08-11T01:16:37;16.40;99.90
6106;DHT22;3083;51.508;7.966;2022-08-11T01:19:44;16.30;99.90
6106;DHT22;3083;51.508;7.966;2022-08-11T01:22:45;16.20;99.90
6106;DHT22;3083;51.508;7.966;2022-08-11T01:25:53;16.10;99.90
6106;DHT22;3083;51.508;7.966;2022-08-11T01:31:49;15.90;99.90
6106;DHT22;3083;51.508;7.966;2022-08-11T01:37:56;15.80;99.90
6106;DHT22;3083;51.508;7.966;2022-08-11T01:43:47;15.70;99.90
6106;DHT22;3083;51.508;7.966;2022-08-11T01:46:45;15.70;99.90
6106;DHT22;3083;51.508;7.966;2022-08-11T01:49:20;15.80;99.90
6106;DHT22;3083;51.508;7.966;2022-08-11T01:52:05;15.80;99.90
6106;DHT22;3083;51.508;7.966;2022-08-11T01:54:41;15.80;99.90
6106;DHT22;3083;51.508;7.966;2022-08-11T01:57:19;15.70;99.90
6106;DHT22;3083;51.508;7.966;2022-08-11T01:59:58;15.70;99.90
6106;DHT22;3083;51.508;7.966;2022-08-11T02:02:36;15.70;99.90
6106;DHT22;3083;51.508;7.966;2022-08-11T02:05:25;15.70;99.90
6106;DHT22;3083;51.508;7.966;2022-08-11T02:08:01;15.60;99.90
6106;DHT22;3083;51.508;7.966;2022-08-11T02:10:39;15.60;99.90
6106;DHT22;3083;51.508;7.966;2022-08-11T02:13:35;15.60;99.90
6106;DHT22;3083;51.508;7.966;2022-08-11T02:16:11;15.60;99.90
6106;DHT22;3083;51.508;7.966;2022-08-11T02:18:45;15.50;99.90
6106;DHT22;3083;51.508;7.966;2022-08-11T02:21:43;15.40;99.90
6106;DHT22;3083;51.508;7.966;2022-08-11T02:24:33;15.40;99.90
6106;DHT22;3083;51.508;7.966;2022-08-11T02:27:06;15.40;99.90
6106;DHT22;3083;51.508;7.966;2022-08-11T02:29:42;15.30;99.90
6106;DHT22;3083;51.508;7.966;2022-08-11T02:32:16;15.20;99.90
6106;DHT22;3083;51.508;7.966;2022-08-11T02:35:09;15.10;99.90
6106;DHT22;3083;51.508;7.966;2022-08-11T02:37:49;15.00;99.90
6106;DHT22;3083;51.508;7.966;2022-08-11T02:40:23;14.90;99.90
6106;DHT22;3083;51.508;7.966;2022-08-11T02:43:21;14.90;99.90
6106;DHT22;3083;51.508;7.966;2022-08-11T02:45:55;14.90;99.90
6106;DHT22;3083;51.508;7.966;2022-08-11T02:48:41;15.00;99.90
6106;DHT22;3083;51.508;7.966;2022-08-11T02:51:37;14.90;99.90
6106;DHT22;3083;51.508;7.966;2022-08-11T02:54:10;14.90;99.90
6106;DHT22;3083;51.508;7.966;2022-08-11T02:56:50;14.90;99.90
6106;DHT22;3083;51.508;7.966;2022-08-11T02:59:41;14.90;99.90
6106;DHT22;3083;51.508;7.966;2022-08-11T03:02:42;14.90;99.90
6106;DHT22;3083;51.508;7.966;2022-08-11T03:05:21;14.80;99.90
6106;DHT22;3083;51.508;7.966;2022-08-11T03:08:05;14.70;99.90
6106;DHT22;3083;51.508;7.966;2022-08-11T03:10:43;14.60;99.90
6106;DHT22;3083;51.508;7.966;2022-08-11T03:13:45;14.60;99.90
6106;DHT22;3083;51.508;7.966;2022-08-11T03:16:40;14.50;99.90
6106;DHT22;3083;51.508;7.966;2022-08-11T03:19:20;14.40;99.90
6106;DHT22;3083;51.508;7.966;2022-08-11T03:21:57;14.40;99.90
6106;DHT22;3083;51.508;7.966;2022-08-11T03:24:35;14.30;99.90
6106;DHT22;3083;51.508;7.966;2022-08-11T03:27:24;14.30;99.90
6106;DHT22;3083;51.508;7.966;2022-08-11T03:30:03;14.30;99.90
6106;DHT22;3083;51.508;7.966;2022-08-11T03:32:39;14.30;99.90
6106;DHT22;3083;51.508;7.966;2022-08-11T03:35:08;14.30;99.90
6106;DHT22;3083;51.508;7.966;2022-08-11T03:37:45;14.30;99.90
6106;DHT22;3083;51.508;7.966;2022-08-11T03:40:39;14.30;99.90
6106;DHT22;3083;51.508;7.966;2022-08-11T03:43:36;14.40;99.90
6106;DHT22;3083;51.508;7.966;2022-08-11T03:46:09;14.40;99.90
6106;DHT22;3083;51.508;7.966;2022-08-11T03:48:48;14.40;99.90
6106;DHT22;3083;51.508;7.966;2022-08-11T03:51:24;14.50;99.90
6106;DHT22;3083;51.508;7.966;2022-08-11T03:54:10;14.40;99.90
6106;DHT22;3083;51.508;7.966;2022-08-11T03:57:19;14.40;99.90
6106;DHT22;3083;51.508;7.966;2022-08-11T04:00:21;14.40;99.90
6106;DHT22;3083;51.508;7.966;2022-08-11T04:03:32;14.40;99.90
6106;DHT22;3083;51.508;7.966;2022-08-11T04:06:33;14.30;99.90
6106;DHT22;3083;51.508;7.966;2022-08-11T04:18:50;14.30;99.90
6106;DHT22;3083;51.508;7.966;2022-08-11T04:21:39;14.30;99.90
6106;DHT22;3083;51.508;7.966;2022-08-11T04:27:26;14.30;99.90
6106;DHT22;3083;51.508;7.966;2022-08-11T04:30:05;14.30;99.90
6106;DHT22;3083;51.508;7.966;2022-08-11T04:32:55;14.30;99.90
6106;DHT22;3083;51.508;7.966;2022-08-11T04:35:33;14.40;99.90
6106;DHT22;3083;51.508;7.966;2022-08-11T04:41:32;14.30;99.90
6106;DHT22;3083;51.508;7.966;2022-08-11T04:45:06;14.40;99.90
6106;DHT22;3083;51.508;7.966;2022-08-11T04:47:50;14.50;99.90
6106;DHT22;3083;51.508;7.966;2022-08-11T04:50:53;14.50;99.90
6106;DHT22;3083;51.508;7.966;2022-08-11T04:53:49;14.50;99.90
6106;DHT22;3083;51.508;7.966;2022-08-11T04:56:39;14.50;99.90
6106;DHT22;3083;51.508;7.966;2022-08-11T04:59:42;14.50;99.90
6106;DHT22;3083;51.508;7.966;2022-08-11T05:06:09;14.90;99.90
6106;DHT22;3083;51.508;7.966;2022-08-11T05:12:02;15.20;99.90
6106;DHT22;3083;51.508;7.966;2022-08-11T05:14:37;15.30;99.90
6106;DHT22;3083;51.508;7.966;2022-08-11T05:17:31;15.40;99.90
6106;DHT22;3083;51.508;7.966;2022-08-11T05:20:18;15.50;99.90
6106;DHT22;3083;51.508;7.966;2022-08-11T05:23:06;15.70;99.90
6106;DHT22;3083;51.508;7.966;2022-08-11T05:25:55;15.90;99.90
6106;DHT22;3083;51.508;7.966;2022-08-11T05:28:45;16.10;99.90
6106;DHT22;3083;51.508;7.966;2022-08-11T05:31:36;16.30;99.90
6106;DHT22;3083;51.508;7.966;2022-08-11T05:34:24;16.50;99.90
6106;DHT22;3083;51.508;7.966;2022-08-11T05:37:12;16.70;99.90
6106;DHT22;3083;51.508;7.966;2022-08-11T05:39:44;17.00;99.90
6106;DHT22;3083;51.508;7.966;2022-08-11T05:42:31;17.30;99.90
6106;DHT22;3083;51.508;7.966;2022-08-11T05:45:19;17.70;99.90
6106;DHT22;3083;51.508;7.966;2022-08-11T05:48:05;18.10;99.90
6106;DHT22;3083;51.508;7.966;2022-08-11T05:50:51;18.60;99.90
6106;DHT22;3083;51.508;7.966;2022-08-11T05:53:46;19.10;99.90
6106;DHT22;3083;51.508;7.966;2022-08-11T05:56:32;19.70;99.90
6106;DHT22;3083;51.508;7.966;2022-08-11T05:59:00;20.20;99.90
6106;DHT22;3083;51.508;7.966;2022-08-11T06:01:30;20.70;99.90
6106;DHT22;3083;51.508;7.966;2022-08-11T06:03:59;21.10;99.90
6106;DHT22;3083;51.508;7.966;2022-08-11T06:06:50;21.50;99.90
6106;DHT22;3083;51.508;7.966;2022-08-11T06:09:24;21.90;99.90
6106;DHT22;3083;51.508;7.966;2022-08-11T06:11:53;22.30;99.90
6106;DHT22;3083;51.508;7.966;2022-08-11T06:14:23;22.60;99.90
6106;DHT22;3083;51.508;7.966;2022-08-11T06:16:55;23.00;99.90
6106;DHT22;3083;51.508;7.966;2022-08-11T06:19:32;23.30;99.90
6106;DHT22;3083;51.508;7.966;2022-08-11T06:22:02;23.60;99.90
6106;DHT22;3083;51.508;7.966;2022-08-11T06:24:29;23.90;99.90
6106;DHT22;3083;51.508;7.966;2022-08-11T06:26:58;24.30;99.90
6106;DHT22;3083;51.508;7.966;2022-08-11T06:29:26;24.70;99.90
6106;DHT22;3083;51.508;7.966;2022-08-11T06:31:57;24.90;99.90
6106;DHT22;3083;51.508;7.966;2022-08-11T06:34:34;25.30;99.90
6106;DHT22;3083;51.508;7.966;2022-08-11T06:37:18;25.70;99.90
6106;DHT22;3083;51.508;7.966;2022-08-11T06:39:51;26.10;99.90
6106;DHT22;3083;51.508;7.966;2022-08-11T06:42:33;26.40;99.90
6106;DHT22;3083;51.508;7.966;2022-08-11T06:45:06;26.60;99.90
6106;DHT22;3083;51.508;7.966;2022-08-11T06:47:44;26.90;99.90
6106;DHT22;3083;51.508;7.966;2022-08-11T06:50:16;27.20;99.90
6106;DHT22;3083;51.508;7.966;2022-08-11T06:53:03;27.50;99.90
6106;DHT22;3083;51.508;7.966;2022-08-11T06:55:33;27.70;99.90
6106;DHT22;3083;51.508;7.966;2022-08-11T06:58:20;28.00;99.90
6106;DHT22;3083;51.508;7.966;2022-08-11T07:01:07;28.30;99.90
6106;DHT22;3083;51.508;7.966;2022-08-11T07:03:42;28.50;99.90
6106;DHT22;3083;51.508;7.966;2022-08-11T07:06:20;28.60;99.90
6106;DHT22;3083;51.508;7.966;2022-08-11T07:09:08;28.60;99.90
6106;DHT22;3083;51.508;7.966;2022-08-11T07:12:08;28.80;99.90
6106;DHT22;3083;51.508;7.966;2022-08-11T07:15:03;29.10;99.90
6106;DHT22;3083;51.508;7.966;2022-08-11T07:17:50;29.40;99.90
6106;DHT22;3083;51.508;7.966;2022-08-11T07:20:43;29.60;99.90
6106;DHT22;3083;51.508;7.966;2022-08-11T07:23:36;29.90;99.90
6106;DHT22;3083;51.508;7.966;2022-08-11T07:26:23;29.80;99.90
6106;DHT22;3083;51.508;7.966;2022-08-11T07:29:13;30.00;99.90
6106;DHT22;3083;51.508;7.966;2022-08-11T07:31:44;30.30;99.90
6106;DHT22;3083;51.508;7.966;2022-08-11T07:34:19;30.40;99.90
6106;DHT22;3083;51.508;7.966;2022-08-11T07:36:52;30.70;99.90
6106;DHT22;3083;51.508;7.966;2022-08-11T07:39:21;30.80;99.90
6106;DHT22;3083;51.508;7.966;2022-08-11T07:41:50;30.80;99.90
6106;DHT22;3083;51.508;7.966;2022-08-11T07:44:18;30.90;99.90
6106;DHT22;3083;51.508;7.966;2022-08-11T07:46:46;31.20;99.90
6106;DHT22;3083;51.508;7.966;2022-08-11T07:49:34;31.40;99.90
6106;DHT22;3083;51.508;7.966;2022-08-11T07:52:21;31.50;99.90
6106;DHT22;3083;51.508;7.966;2022-08-11T07:55:00;31.70;99.90
6106;DHT22;3083;51.508;7.966;2022-08-11T07:57:28;31.80;99.90
6106;DHT22;3083;51.508;7.966;2022-08-11T08:00:15;32.00;99.90
6106;DHT22;3083;51.508;7.966;2022-08-11T08:03:01;32.10;99.90
6106;DHT22;3083;51.508;7.966;2022-08-11T08:05:46;32.20;99.90
6106;DHT22;3083;51.508;7.966;2022-08-11T08:08:32;32.20;99.90
6106;DHT22;3083;51.508;7.966;2022-08-11T08:11:20;32.10;99.90
6106;DHT22;3083;51.508;7.966;2022-08-11T08:14:05;32.20;99.90
6106;DHT22;3083;51.508;7.966;2022-08-11T08:16:49;32.20;99.90
6106;DHT22;3083;51.508;7.966;2022-08-11T08:19:35;32.10;99.90
6106;DHT22;3083;51.508;7.966;2022-08-11T08:22:03;32.20;99.90
6106;DHT22;3083;51.508;7.966;2022-08-11T08:24:31;32.40;99.90
6106;DHT22;3083;51.508;7.966;2022-08-11T08:26:59;32.50;99.90
6106;DHT22;3083;51.508;7.966;2022-08-11T08:29:31;32.50;99.90
6106;DHT22;3083;51.508;7.966;2022-08-11T08:32:16;32.60;99.90
6106;DHT22;3083;51.508;7.966;2022-08-11T08:34:45;32.60;99.90
6106;DHT22;3083;51.508;7.966;2022-08-11T08:37:12;32.50;99.90
6106;DHT22;3083;51.508;7.966;2022-08-11T08:39:44;32.70;99.90
6106;DHT22;3083;51.508;7.966;2022-08-11T08:42:12;32.70;99.90
6106;DHT22;3083;51.508;7.966;2022-08-11T08:44:48;32.70;99.90
6106;DHT22;3083;51.508;7.966;2022-08-11T08:47:17;32.80;99.90
6106;DHT22;3083;51.508;7.966;2022-08-11T08:49:47;32.80;99.90
6106;DHT22;3083;51.508;7.966;2022-08-11T08:52:18;32.80;99.90
6106;DHT22;3083;51.508;7.966;2022-08-11T08:54:50;32.80;99.90
6106;DHT22;3083;51.508;7.966;2022-08-11T08:57:21;32.80;99.90
6106;DHT22;3083;51.508;7.966;2022-08-11T08:59:49;32.90;99.90
6106;DHT22;3083;51.508;7.966;2022-08-11T09:02:23;33.00;99.90
6106;DHT22;3083;51.508;7.966;2022-08-11T09:04:51;33.10;99.90
6106;DHT22;3083;51.508;7.966;2022-08-11T09:07:22;33.10;99.90
6106;DHT22;3083;51.508;7.966;2022-08-11T09:09:55;33.20;99.90
6106;DHT22;3083;51.508;7.966;2022-08-11T09:12:26;33.30;99.90
6106;DHT22;3083;51.508;7.966;2022-08-11T09:14:54;33.30;99.90
6106;DHT22;3083;51.508;7.966;2022-08-11T09:17:30;33.40;99.90
6106;DHT22;3083;51.508;7.966;2022-08-11T09:19:59;33.40;99.90
6106;DHT22;3083;51.508;7.966;2022-08-11T09:22:28;33.40;99.90
6106;DHT22;3083;51.508;7.966;2022-08-11T09:25:15;33.50;99.90
6106;DHT22;3083;51.508;7.966;2022-08-11T09:28:00;33.10;99.90
6106;DHT22;3083;51.508;7.966;2022-08-11T09:30:30;33.10;99.90
6106;DHT22;3083;51.508;7.966;2022-08-11T09:33:00;33.30;99.90
6106;DHT22;3083;51.508;7.966;2022-08-11T09:35:30;33.40;99.90
6106;DHT22;3083;51.508;7.966;2022-08-11T09:37:59;33.50;99.90
6106;DHT22;3083;51.508;7.966;2022-08-11T09:40:46;33.30;99.90
6106;DHT22;3083;51.508;7.966;2022-08-11T09:43:16;33.30;99.90
6106;DHT22;3083;51.508;7.966;2022-08-11T09:46:02;33.50;99.90
6106;DHT22;3083;51.508;7.966;2022-08-11T09:48:34;33.70;99.90
6106;DHT22;3083;51.508;7.966;2022-08-11T09:51:02;33.80;99.90
6106;DHT22;3083;51.508;7.966;2022-08-11T09:53:32;33.50;99.90
6106;DHT22;3083;51.508;7.966;2022-08-11T09:56:02;33.70;99.90
6106;DHT22;3083;51.508;7.966;2022-08-11T09:58:50;33.70;99.90
6106;DHT22;3083;51.508;7.966;2022-08-11T10:01:20;33.40;99.90
6106;DHT22;3083;51.508;7.966;2022-08-11T10:03:55;33.20;99.90
6106;DHT22;3083;51.508;7.966;2022-08-11T10:06:25;33.20;99.90
6106;DHT22;3083;51.508;7.966;2022-08-11T10:09:13;33.40;99.90
6106;DHT22;3083;51.508;7.966;2022-08-11T10:11:43;33.50;99.90
6106;DHT22;3083;51.508;7.966;2022-08-11T10:14:10;33.50;99.90
6106;DHT22;3083;51.508;7.966;2022-08-11T10:16:55;33.50;99.90
6106;DHT22;3083;51.508;7.966;2022-08-11T10:19:23;33.30;99.90
6106;DHT22;3083;51.508;7.966;2022-08-11T10:21:51;33.00;99.90
6106;DHT22;3083;51.508;7.966;2022-08-11T10:24:33;33.20;99.90
6106;DHT22;3083;51.508;7.966;2022-08-11T10:27:21;33.30;99.90
6106;DHT22;3083;51.508;7.966;2022-08-11T10:29:50;33.40;99.90
6106;DHT22;3083;51.508;7.966;2022-08-11T10:32:36;33.40;99.90
6106;DHT22;3083;51.508;7.966;2022-08-11T10:35:21;33.50;99.90
6106;DHT22;3083;51.508;7.966;2022-08-11T10:37:52;33.70;99.90
6106;DHT22;3083;51.508;7.966;2022-08-11T10:40:21;33.70;99.90
6106;DHT22;3083;51.508;7.966;2022-08-11T10:42:58;33.60;99.90
6106;DHT22;3083;51.508;7.966;2022-08-11T10:45:28;33.40;99.90
6106;DHT22;3083;51.508;7.966;2022-08-11T10:48:13;33.20;99.60
6106;DHT22;3083;51.508;7.966;2022-08-11T10:50:44;33.40;99.90
6106;DHT22;3083;51.508;7.966;2022-08-11T10:53:29;33.70;99.90
6106;DHT22;3083;51.508;7.966;2022-08-11T10:56:15;33.60;98.90
6106;DHT22;3083;51.508;7.966;2022-08-11T10:59:02;33.40;99.20
6106;DHT22;3083;51.508;7.966;2022-08-11T11:01:32;33.40;99.50
6106;DHT22;3083;51.508;7.966;2022-08-11T11:04:03;33.30;99.10
6106;DHT22;3083;51.508;7.966;2022-08-11T11:06:35;33.20;98.30
6106;DHT22;3083;51.508;7.966;2022-08-11T11:09:15;33.20;98.50
6106;DHT22;3083;51.508;7.966;2022-08-11T11:11:46;33.10;99.90
6106;DHT22;3083;51.508;7.966;2022-08-11T11:14:35;33.40;99.20
6106;DHT22;3083;51.508;7.966;2022-08-11T11:17:26;33.40;97.90
6106;DHT22;3083;51.508;7.966;2022-08-11T11:20:15;33.30;98.10
6106;DHT22;3083;51.508;7.966;2022-08-11T11:22:43;33.20;98.00
6106;DHT22;3083;51.508;7.966;2022-08-11T11:25:21;33.20;97.10
6106;DHT22;3083;51.508;7.966;2022-08-11T11:28:13;33.00;97.60
6106;DHT22;3083;51.508;7.966;2022-08-11T11:30:55;32.90;97.20
6106;DHT22;3083;51.508;7.966;2022-08-11T11:33:32;32.90;97.80
6106;DHT22;3083;51.508;7.966;2022-08-11T11:36:13;32.90;98.10
6106;DHT22;3083;51.508;7.966;2022-08-11T11:38:42;33.00;98.00
6106;DHT22;3083;51.508;7.966;2022-08-11T11:41:10;32.90;96.60
6106;DHT22;3083;51.508;7.966;2022-08-11T11:43:52;32.80;96.70
6106;DHT22;3083;51.508;7.966;2022-08-11T11:46:21;32.90;98.50
6106;DHT22;3083;51.508;7.966;2022-08-11T11:48:51;33.00;97.30
6106;DHT22;3083;51.508;7.966;2022-08-11T11:51:18;33.10;97.10
6106;DHT22;3083;51.508;7.966;2022-08-11T11:53:46;33.10;97.20
6106;DHT22;3083;51.508;7.966;2022-08-11T11:56:14;32.90;96.60
6106;DHT22;3083;51.508;7.966;2022-08-11T11:58:42;32.90;96.70
6106;DHT22;3083;51.508;7.966;2022-08-11T12:01:29;32.90;96.90
6106;DHT22;3083;51.508;7.966;2022-08-11T12:03:59;32.80;97.00
6106;DHT22;3083;51.508;7.966;2022-08-11T12:06:31;32.80;96.60
6106;DHT22;3083;51.508;7.966;2022-08-11T12:08:58;32.80;96.40
6106;DHT22;3083;51.508;7.966;2022-08-11T12:11:28;32.90;97.40
6106;DHT22;3083;51.508;7.966;2022-08-11T12:14:16;33.10;97.30
6106;DHT22;3083;51.508;7.966;2022-08-11T12:16:46;33.20;97.00
6106;DHT22;3083;51.508;7.966;2022-08-11T12:19:15;33.20;96.20
6106;DHT22;3083;51.508;7.966;2022-08-11T12:21:44;33.10;96.50
6106;DHT22;3083;51.508;7.966;2022-08-11T12:24:30;33.20;96.60
6106;DHT22;3083;51.508;7.966;2022-08-11T12:27:15;33.10;96.50
6106;DHT22;3083;51.508;7.966;2022-08-11T12:29:50;33.10;98.00
6106;DHT22;3083;51.508;7.966;2022-08-11T12:32:20;33.10;96.10
6106;DHT22;3083;51.508;7.966;2022-08-11T12:34:48;33.10;96.10
6106;DHT22;3083;51.508;7.966;2022-08-11T12:37:20;33.10;97.50
6106;DHT22;3083;51.508;7.966;2022-08-11T12:39:50;33.20;97.60
6106;DHT22;3083;51.508;7.966;2022-08-11T12:42:36;33.30;98.20
6106;DHT22;3083;51.508;7.966;2022-08-11T12:45:25;33.40;97.50
6106;DHT22;3083;51.508;7.966;2022-08-11T12:48:08;33.30;96.60
6106;DHT22;3083;51.508;7.966;2022-08-11T12:51:00;33.30;97.30
6106;DHT22;3083;51.508;7.966;2022-08-11T12:54:00;33.40;97.30
6106;DHT22;3083;51.508;7.966;2022-08-11T12:56:31;33.30;96.90
6106;DHT22;3083;51.508;7.966;2022-08-11T12:59:18;33.30;96.00
6106;DHT22;3083;51.508;7.966;2022-08-11T13:02:02;33.10;95.70
6106;DHT22;3083;51.508;7.966;2022-08-11T13:04:49;33.10;96.00
6106;DHT22;3083;51.508;7.966;2022-08-11T13:07:24;33.00;96.00
6106;DHT22;3083;51.508;7.966;2022-08-11T13:09:52;33.00;95.40
6106;DHT22;3083;51.508;7.966;2022-08-11T13:12:22;33.00;97.00
6106;DHT22;3083;51.508;7.966;2022-08-11T13:15:09;33.00;97.00
6106;DHT22;3083;51.508;7.966;2022-08-11T13:17:37;33.00;96.10
6106;DHT22;3083;51.508;7.966;2022-08-11T13:20:08;33.00;97.20
6106;DHT22;3083;51.508;7.966;2022-08-11T13:22:37;33.00;97.30
6106;DHT22;3083;51.508;7.966;2022-08-11T13:25:06;33.10;96.20
6106;DHT22;3083;51.508;7.966;2022-08-11T13:27:34;33.00;95.90
6106;DHT22;3083;51.508;7.966;2022-08-11T13:30:02;33.00;95.20
6106;DHT22;3083;51.508;7.966;2022-08-11T13:32:47;32.80;95.00
6106;DHT22;3083;51.508;7.966;2022-08-11T13:35:16;32.80;94.60
6106;DHT22;3083;51.508;7.966;2022-08-11T13:37:45;32.80;94.10
6106;DHT22;3083;51.508;7.966;2022-08-11T13:40:13;32.80;94.20
6106;DHT22;3083;51.508;7.966;2022-08-11T13:42:43;32.70;96.20
6106;DHT22;3083;51.508;7.966;2022-08-11T13:45:10;32.80;95.40
6106;DHT22;3083;51.508;7.966;2022-08-11T13:47:38;32.90;96.10
6106;DHT22;3083;51.508;7.966;2022-08-11T13:50:07;33.00;95.80
6106;DHT22;3083;51.508;7.966;2022-08-11T13:52:36;33.00;95.50
6106;DHT22;3083;51.508;7.966;2022-08-11T13:55:06;33.00;96.00
6106;DHT22;3083;51.508;7.966;2022-08-11T13:57:34;33.00;95.00
6106;DHT22;3083;51.508;7.966;2022-08-11T14:00:05;32.90;95.40
6106;DHT22;3083;51.508;7.966;2022-08-11T14:02:39;33.00;95.90
6106;DHT22;3083;51.508;7.966;2022-08-11T14:05:11;33.10;95.30
6106;DHT22;3083;51.508;7.966;2022-08-11T14:07:47;33.10;97.10
6106;DHT22;3083;51.508;7.966;2022-08-11T14:10:17;33.10;96.20
6106;DHT22;3083;51.508;7.966;2022-08-11T14:12:49;33.00;95.10
6106;DHT22;3083;51.508;7.966;2022-08-11T14:15:35;33.00;95.30
6106;DHT22;3083;51.508;7.966;2022-08-11T14:18:08;33.00;95.00
6106;DHT22;3083;51.508;7.966;2022-08-11T14:20:41;32.90;95.00
6106;DHT22;3083;51.508;7.966;2022-08-11T14:23:29;32.80;95.80
6106;DHT22;3083;51.508;7.966;2022-08-11T14:25:57;32.60;94.40
6106;DHT22;3083;51.508;7.966;2022-08-11T14:28:43;32.60;95.40
6106;DHT22;3083;51.508;7.966;2022-08-11T14:31:11;32.50;94.40
6106;DHT22;3083;51.508;7.966;2022-08-11T14:33:40;32.40;95.10
6106;DHT22;3083;51.508;7.966;2022-08-11T14:36:09;32.50;95.20
6106;DHT22;3083;51.508;7.966;2022-08-11T14:38:39;32.50;94.40
6106;DHT22;3083;51.508;7.966;2022-08-11T14:41:06;32.40;94.90
6106;DHT22;3083;51.508;7.966;2022-08-11T14:43:52;32.40;94.60
6106;DHT22;3083;51.508;7.966;2022-08-11T14:46:39;32.30;94.90
6106;DHT22;3083;51.508;7.966;2022-08-11T14:49:25;32.30;95.30
6106;DHT22;3083;51.508;7.966;2022-08-11T14:51:53;32.10;94.20
6106;DHT22;3083;51.508;7.966;2022-08-11T14:54:25;32.00;95.20
6106;DHT22;3083;51.508;7.966;2022-08-11T14:57:11;32.00;94.60
6106;DHT22;3083;51.508;7.966;2022-08-11T14:59:38;31.90;93.90
6106;DHT22;3083;51.508;7.966;2022-08-11T15:02:06;31.90;94.10
6106;DHT22;3083;51.508;7.966;2022-08-11T15:05:04;31.80;93.70
6106;DHT22;3083;51.508;7.966;2022-08-11T15:07:32;31.80;94.40
6106;DHT22;3083;51.508;7.966;2022-08-11T15:10:03;31.80;95.00
6106;DHT22;3083;51.508;7.966;2022-08-11T15:12:33;31.90;95.20
6106;DHT22;3083;51.508;7.966;2022-08-11T15:15:01;31.90;95.10
6106;DHT22;3083;51.508;7.966;2022-08-11T15:17:46;31.90;95.10
6106;DHT22;3083;51.508;7.966;2022-08-11T15:20:15;31.80;95.10
6106;DHT22;3083;51.508;7.966;2022-08-11T15:23:00;31.80;94.70
6106;DHT22;3083;51.508;7.966;2022-08-11T15:25:49;31.70;94.40
6106;DHT22;3083;51.508;7.966;2022-08-11T15:28:19;31.60;94.60
6106;DHT22;3083;51.508;7.966;2022-08-11T15:31:05;31.60;94.80
6106;DHT22;3083;51.508;7.966;2022-08-11T15:33:52;31.60;95.50
6106;DHT22;3083;51.508;7.966;2022-08-11T15:36:38;31.60;95.00
6106;DHT22;3083;51.508;7.966;2022-08-11T15:39:29;31.60;94.70
6106;DHT22;3083;51.508;7.966;2022-08-11T15:42:01;31.60;95.20
6106;DHT22;3083;51.508;7.966;2022-08-11T15:44:52;31.60;96.00
6106;DHT22;3083;51.508;7.966;2022-08-11T15:47:41;31.60;95.50
6106;DHT22;3083;51.508;7.966;2022-08-11T15:50:14;31.40;96.10
6106;DHT22;3083;51.508;7.966;2022-08-11T15:52:48;31.30;95.50
6106;DHT22;3083;51.508;7.966;2022-08-11T15:55:18;31.30;95.80
6106;DHT22;3083;51.508;7.966;2022-08-11T15:57:48;31.20;95.80
6106;DHT22;3083;51.508;7.966;2022-08-11T16:00:35;31.20;96.10
6106;DHT22;3083;51.508;7.966;2022-08-11T16:03:21;31.10;95.60
6106;DHT22;3083;51.508;7.966;2022-08-11T16:06:07;31.00;95.90
6106;DHT22;3083;51.508;7.966;2022-08-11T16:08:36;31.00;95.20
6106;DHT22;3083;51.508;7.966;2022-08-11T16:11:06;31.00;95.60
6106;DHT22;3083;51.508;7.966;2022-08-11T16:13:36;31.00;95.30
6106;DHT22;3083;51.508;7.966;2022-08-11T16:16:22;30.90;95.40
6106;DHT22;3083;51.508;7.966;2022-08-11T16:18:52;30.80;95.30
6106;DHT22;3083;51.508;7.966;2022-08-11T16:21:23;30.70;96.00
6106;DHT22;3083;51.508;7.966;2022-08-11T16:23:53;30.60;96.00
6106;DHT22;3083;51.508;7.966;2022-08-11T16:26:21;30.50;95.50
6106;DHT22;3083;51.508;7.966;2022-08-11T16:28:52;30.50;95.60
6106;DHT22;3083;51.508;7.966;2022-08-11T16:31:21;30.40;95.60
6106;DHT22;3083;51.508;7.966;2022-08-11T16:33:51;30.40;95.00
6106;DHT22;3083;51.508;7.966;2022-08-11T16:36:20;30.40;95.30
6106;DHT22;3083;51.508;7.966;2022-08-11T16:39:06;30.30;95.10
6106;DHT22;3083;51.508;7.966;2022-08-11T16:41:35;30.20;95.10
6106;DHT22;3083;51.508;7.966;2022-08-11T16:44:23;30.20;95.10
6106;DHT22;3083;51.508;7.966;2022-08-11T16:47:11;30.10;95.30
6106;DHT22;3083;51.508;7.966;2022-08-11T16:49:43;30.00;95.10
6106;DHT22;3083;51.508;7.966;2022-08-11T16:52:12;30.00;95.40
6106;DHT22;3083;51.508;7.966;2022-08-11T16:54:40;29.90;95.40
6106;DHT22;3083;51.508;7.966;2022-08-11T16:57:11;29.80;95.50
6106;DHT22;3083;51.508;7.966;2022-08-11T17:00:01;29.80;95.40
6106;DHT22;3083;51.508;7.966;2022-08-11T17:02:32;29.70;95.70
6106;DHT22;3083;51.508;7.966;2022-08-11T17:05:22;29.60;95.50
6106;DHT22;3083;51.508;7.966;2022-08-11T17:08:08;29.40;95.80
6106;DHT22;3083;51.508;7.966;2022-08-11T17:10:56;29.30;96.10
6106;DHT22;3083;51.508;7.966;2022-08-11T17:13:43;29.30;96.60
6106;DHT22;3083;51.508;7.966;2022-08-11T17:16:16;29.20;96.30
6106;DHT22;3083;51.508;7.966;2022-08-11T17:18:50;29.10;96.60
6106;DHT22;3083;51.508;7.966;2022-08-11T17:21:22;29.10;96.60
6106;DHT22;3083;51.508;7.966;2022-08-11T17:23:54;29.00;96.80
6106;DHT22;3083;51.508;7.966;2022-08-11T17:26:28;29.00;97.00
6106;DHT22;3083;51.508;7.966;2022-08-11T17:29:20;29.00;96.90
6106;DHT22;3083;51.508;7.966;2022-08-11T17:31:51;28.90;97.20
6106;DHT22;3083;51.508;7.966;2022-08-11T17:34:38;28.80;97.00
6106;DHT22;3083;51.508;7.966;2022-08-11T17:37:26;28.70;97.20
6106;DHT22;3083;51.508;7.966;2022-08-11T17:39:57;28.60;97.00
6106;DHT22;3083;51.508;7.966;2022-08-11T17:42:27;28.50;97.00
6106;DHT22;3083;51.508;7.966;2022-08-11T17:45:12;28.40;97.20
6106;DHT22;3083;51.508;7.966;2022-08-11T17:48:00;28.40;97.30
6106;DHT22;3083;51.508;7.966;2022-08-11T17:50:46;28.30;97.40
6106;DHT22;3083;51.508;7.966;2022-08-11T17:53:14;28.20;97.50